createdAt,value
2022-12-24T00:01:21.509Z,62.05
2022-12-24T00:03:49.312Z,62.08
2022-12-24T00:06:19.931Z,61.83
2022-12-24T00:08:47.468Z,59.22
2022-12-24T00:11:15.099Z,58.25
2022-12-24T00:13:42.639Z,57.22
2022-12-24T00:16:10.036Z,58.28
2022-12-24T00:18:43.369Z,59.80
2022-12-24T00:21:15.206Z,60.05
2022-12-24T00:23:42.633Z,59.88
2022-12-24T00:26:10.171Z,58.65
2022-12-24T00:28:37.591Z,58.60
2022-12-24T00:31:17.212Z,58.08
2022-12-24T00:33:47.169Z,57.58
2022-12-24T00:36:15.084Z,55.10
2022-12-24T00:38:42.705Z,55.60
2022-12-24T00:41:24.976Z,56.33
2022-12-24T00:44:01.518Z,53.70
2022-12-24T00:46:30.932Z,55.33
2022-12-24T00:48:58.538Z,51.30
2022-12-24T00:51:26.263Z,54.00
2022-12-24T00:53:54.181Z,55.67
2022-12-24T00:56:22.861Z,53.40
2022-12-24T00:58:50.225Z,54.55
2022-12-24T01:01:20.558Z,54.95
2022-12-24T01:03:48.379Z,54.80
2022-12-24T01:06:19.240Z,55.45
2022-12-24T01:08:47.181Z,57.33
2022-12-24T01:11:14.603Z,56.30
2022-12-24T01:13:42.262Z,56.30
2022-12-24T01:16:20.375Z,54.85
2022-12-24T01:18:48.102Z,55.63
2022-12-24T01:21:16.243Z,58.22
2022-12-24T01:23:43.714Z,55.10
2022-12-24T01:26:14.258Z,55.38
2022-12-24T01:28:42.400Z,55.03
2022-12-24T01:31:15.129Z,56.70
2022-12-24T01:33:43.406Z,54.28
2022-12-24T01:36:11.832Z,55.72
2022-12-24T01:38:39.767Z,57.58
2022-12-24T01:41:26.145Z,60.03
2022-12-24T01:43:53.526Z,56.10
2022-12-24T01:46:28.709Z,57.90
2022-12-24T01:49:01.905Z,58.42
2022-12-24T01:51:42.637Z,56.03
2022-12-24T01:54:39.399Z,54.72
2022-12-24T01:57:23.729Z,54.38
2022-12-24T01:59:57.935Z,54.15
2022-12-24T02:02:27.425Z,54.20
2022-12-24T02:05:09.824Z,58.25
2022-12-24T02:07:37.507Z,54.83
2022-12-24T02:10:07.965Z,57.08
2022-12-24T02:12:37.495Z,56.92
2022-12-24T02:15:10.648Z,54.55
2022-12-24T02:17:43.903Z,57.72
2022-12-24T02:20:35.861Z,57.33
2022-12-24T02:23:22.018Z,57.63
2022-12-24T02:26:16.154Z,56.65
2022-12-24T02:28:43.487Z,53.88
2022-12-24T02:31:32.720Z,56.83
2022-12-24T02:34:33.550Z,56.13
2022-12-24T02:37:04.409Z,54.72
2022-12-24T02:40:16.566Z,60.58
2022-12-24T02:42:51.430Z,56.55
2022-12-24T02:45:22.719Z,57.55
2022-12-24T02:47:51.514Z,54.60
2022-12-24T02:50:19.403Z,52.72
2022-12-24T02:52:48.047Z,54.28
2022-12-24T02:55:28.550Z,53.90
2022-12-24T02:58:21.696Z,54.45
2022-12-24T03:01:19.385Z,58.50
2022-12-24T03:04:39.458Z,56.60
2022-12-24T03:07:37.169Z,56.78
2022-12-24T03:10:16.874Z,57.15
2022-12-24T03:12:53.271Z,64.63
2022-12-24T03:15:25.438Z,65.32
2022-12-24T03:20:31.130Z,57.38
2022-12-24T03:22:58.687Z,58.20
2022-12-24T03:25:27.202Z,59.13
2022-12-24T03:27:57.264Z,64.22
2022-12-24T03:30:26.403Z,63.75
2022-12-24T03:32:53.939Z,61.28
2022-12-24T03:35:21.527Z,63.08
2022-12-24T03:37:49.114Z,63.00
2022-12-24T03:40:16.573Z,61.33
2022-12-24T03:42:44.023Z,62.67
2022-12-24T03:45:11.605Z,62.03
2022-12-24T03:47:39.015Z,62.80
2022-12-24T03:50:07.532Z,62.97
2022-12-24T03:52:35.286Z,57.53
2022-12-24T03:55:02.698Z,58.35
2022-12-24T03:57:30.123Z,57.90
2022-12-24T03:59:57.511Z,56.20
2022-12-24T04:02:25.144Z,58.38
2022-12-24T04:04:52.633Z,57.22
2022-12-24T04:07:20.021Z,53.95
2022-12-24T04:09:47.380Z,57.28
2022-12-24T04:12:14.888Z,57.38
2022-12-24T04:14:42.253Z,58.97
2022-12-24T04:17:09.645Z,57.30
2022-12-24T04:19:37.012Z,57.67
2022-12-24T04:22:04.408Z,57.33
2022-12-24T04:24:31.743Z,58.97
2022-12-24T04:26:59.148Z,56.45
2022-12-24T04:29:26.542Z,59.20
2022-12-24T04:31:54.023Z,55.35
2022-12-24T04:34:21.399Z,58.25
2022-12-24T04:36:48.765Z,59.08
2022-12-24T04:39:16.196Z,57.40
2022-12-24T04:41:43.563Z,57.90
2022-12-24T04:44:11.079Z,58.15
2022-12-24T04:46:38.438Z,57.63
2022-12-24T04:49:05.859Z,57.15
2022-12-24T04:51:33.351Z,57.95
2022-12-24T04:54:00.835Z,58.80
2022-12-24T04:56:31.224Z,55.08
2022-12-24T04:59:02.210Z,56.28
2022-12-24T05:01:32.334Z,55.75
2022-12-24T05:04:00.034Z,55.65
2022-12-24T05:06:30.478Z,53.75
2022-12-24T05:08:58.677Z,51.63
2022-12-24T05:11:26.467Z,55.17
2022-12-24T05:13:53.889Z,54.53
2022-12-24T05:16:23.092Z,54.85
2022-12-24T05:18:50.871Z,55.40
2022-12-24T05:21:21.663Z,54.70
2022-12-24T05:24:08.366Z,58.08
2022-12-24T05:26:49.383Z,56.75
2022-12-24T05:29:17.146Z,55.63
2022-12-24T05:31:45.222Z,61.40
2022-12-24T05:34:14.764Z,59.08
2022-12-24T05:36:42.995Z,54.80
2022-12-24T05:39:16.462Z,57.92
2022-12-24T05:41:45.228Z,57.25
2022-12-24T05:44:13.181Z,57.00
2022-12-24T05:46:40.651Z,54.90
2022-12-24T05:49:08.302Z,55.15
2022-12-24T05:51:36.392Z,56.00
2022-12-24T05:54:03.831Z,54.45
2022-12-24T05:56:31.256Z,56.15
2022-12-24T05:58:58.794Z,55.80
2022-12-24T06:01:26.817Z,57.17
2022-12-24T06:03:54.232Z,57.40
2022-12-24T06:06:25.283Z,58.53
2022-12-24T06:08:53.905Z,58.45
2022-12-24T06:11:24.643Z,57.25
2022-12-24T06:13:53.172Z,58.22
2022-12-24T06:16:22.073Z,59.47
2022-12-24T06:18:49.886Z,58.22
2022-12-24T06:21:18.457Z,58.95
2022-12-24T06:23:46.690Z,57.65
2022-12-24T06:26:17.344Z,56.63
2022-12-24T06:28:45.898Z,54.33
2022-12-24T06:31:15.907Z,59.20
2022-12-24T06:33:43.796Z,55.60
2022-12-24T06:36:17.860Z,56.97
2022-12-24T06:38:47.038Z,55.00
2022-12-24T06:41:15.170Z,53.42
2022-12-24T06:43:47.155Z,55.70
2022-12-24T06:46:15.540Z,54.05
2022-12-24T06:48:44.885Z,52.20
2022-12-24T06:51:13.563Z,54.72
2022-12-24T06:53:41.213Z,49.72
2022-12-24T06:56:11.031Z,50.55
2022-12-24T06:58:39.375Z,54.47
2022-12-24T07:01:09.668Z,55.70
2022-12-24T07:03:37.132Z,55.30
2022-12-24T07:06:05.000Z,50.60
2022-12-24T07:08:34.126Z,50.42
2022-12-24T07:11:01.937Z,53.25
2022-12-24T07:13:29.445Z,51.75
2022-12-24T07:16:05.156Z,51.25
2022-12-24T07:18:33.029Z,47.42
2022-12-24T07:21:01.231Z,48.38
2022-12-24T07:23:29.265Z,49.10
2022-12-24T07:25:59.756Z,50.50
2022-12-24T07:28:28.181Z,51.42
2022-12-24T07:31:00.153Z,54.55
2022-12-24T07:33:27.962Z,54.50
2022-12-24T07:36:19.748Z,61.10
2022-12-24T07:38:47.385Z,54.47
2022-12-24T07:41:15.423Z,51.83
2022-12-24T07:43:42.815Z,53.13
2022-12-24T07:46:10.252Z,52.45
2022-12-24T07:48:38.823Z,51.85
2022-12-24T07:51:06.361Z,55.55
2022-12-24T07:53:33.856Z,53.85
2022-12-24T07:56:01.255Z,55.70
2022-12-24T07:58:28.627Z,58.17
2022-12-24T08:01:00.602Z,56.72
2022-12-24T08:03:28.187Z,57.22
2022-12-24T08:05:57.186Z,55.30
2022-12-24T08:08:25.940Z,53.15
2022-12-24T08:10:53.342Z,53.00
2022-12-24T08:13:20.764Z,50.92
2022-12-24T08:15:48.357Z,48.92
2022-12-24T08:18:15.812Z,49.53
2022-12-24T08:20:43.199Z,51.13
2022-12-24T08:23:10.724Z,48.10
2022-12-24T08:25:42.040Z,48.38
2022-12-24T08:28:09.459Z,47.83
2022-12-24T08:30:36.991Z,47.72
2022-12-24T08:33:04.955Z,44.85
2022-12-24T08:35:32.425Z,47.10
2022-12-24T08:37:59.925Z,46.35
2022-12-24T08:40:27.431Z,45.60
2022-12-24T08:42:54.897Z,44.88
2022-12-24T08:45:22.390Z,44.10
2022-12-24T08:47:49.758Z,44.50
2022-12-24T08:50:17.233Z,45.50
2022-12-24T08:52:44.585Z,46.10
2022-12-24T08:55:11.973Z,46.97
2022-12-24T08:57:39.385Z,48.53
2022-12-24T09:00:08.643Z,48.05
2022-12-24T09:02:36.748Z,44.40
2022-12-24T09:05:04.609Z,47.15
2022-12-24T09:07:31.938Z,48.15
2022-12-24T09:09:59.326Z,45.90
2022-12-24T09:12:26.667Z,49.17
2022-12-24T09:14:58.175Z,48.85
2022-12-24T09:17:28.757Z,44.80
2022-12-24T09:19:56.095Z,49.60
2022-12-24T09:22:23.487Z,46.83
2022-12-24T09:24:50.868Z,50.28
2022-12-24T09:27:18.277Z,47.63
2022-12-24T09:29:45.814Z,53.15
2022-12-24T09:32:13.339Z,58.22
2022-12-24T09:34:40.785Z,69.95
2022-12-24T09:37:08.236Z,58.92
2022-12-24T09:39:35.572Z,59.67
2022-12-24T09:42:24.381Z,58.10
2022-12-24T09:45:03.700Z,59.50
2022-12-24T09:47:41.231Z,59.17
2022-12-24T09:50:33.763Z,62.38
2022-12-24T09:55:36.258Z,58.08
2022-12-24T09:58:07.992Z,61.58
2022-12-24T10:00:37.922Z,62.13
2022-12-24T10:03:16.396Z,58.22
2022-12-24T10:06:08.136Z,58.70
2022-12-24T10:08:50.496Z,57.17
2022-12-24T10:11:44.391Z,60.28
2022-12-24T10:14:43.963Z,60.92
2022-12-24T10:17:38.876Z,62.10
2022-12-24T10:20:18.077Z,57.67
2022-12-24T10:23:12.018Z,62.38
2022-12-24T10:26:02.580Z,59.33
2022-12-24T10:28:57.935Z,60.63
2022-12-24T10:31:35.038Z,63.78
2022-12-24T10:34:12.264Z,60.90
2022-12-24T10:36:39.635Z,58.55
2022-12-24T10:39:18.491Z,57.30
2022-12-24T10:41:58.143Z,59.15
2022-12-24T10:44:29.871Z,59.10
2022-12-24T10:46:57.422Z,58.17
2022-12-24T10:49:24.775Z,56.80
2022-12-24T10:52:00.004Z,52.15
2022-12-24T10:54:29.083Z,52.63
2022-12-24T10:57:01.388Z,52.53
2022-12-24T10:59:50.352Z,55.10
2022-12-24T11:02:34.419Z,54.50
2022-12-24T11:05:05.090Z,51.97
2022-12-24T11:07:33.120Z,51.58
2022-12-24T11:10:06.188Z,54.13
2022-12-24T11:13:00.297Z,51.55
2022-12-24T11:15:35.112Z,55.83
2022-12-24T11:18:13.349Z,50.38
2022-12-24T11:20:41.285Z,53.08
2022-12-24T11:23:17.166Z,51.00
2022-12-24T11:25:50.668Z,51.90
2022-12-24T11:28:27.310Z,55.75
2022-12-24T11:31:17.732Z,52.88
2022-12-24T11:33:50.811Z,55.25
2022-12-24T11:36:22.722Z,56.20
2022-12-24T11:38:55.442Z,55.53
2022-12-24T11:41:23.641Z,57.60
2022-12-24T11:43:59.192Z,54.67
2022-12-24T11:46:37.901Z,56.00
2022-12-24T11:49:19.862Z,57.63
2022-12-24T11:52:12.140Z,58.35
2022-12-24T11:54:43.555Z,54.45
2022-12-24T11:57:14.350Z,57.77
2022-12-24T11:59:48.397Z,56.88
2022-12-24T12:02:39.838Z,55.42
2022-12-24T12:05:25.299Z,57.00
2022-12-24T12:07:58.742Z,56.53
2022-12-24T12:10:32.039Z,60.03
2022-12-24T12:13:12.918Z,57.42
2022-12-24T12:15:51.370Z,57.00
2022-12-24T12:18:25.442Z,57.95
2022-12-24T12:20:58.446Z,57.22
2022-12-24T12:23:38.257Z,58.17
2022-12-24T12:26:33.293Z,59.85
2022-12-24T12:29:31.739Z,59.67
2022-12-24T12:32:15.096Z,64.53
2022-12-24T12:34:52.120Z,66.00
2022-12-24T12:37:33.887Z,60.33
2022-12-24T12:40:01.812Z,51.40
2022-12-24T12:42:39.600Z,55.92
2022-12-24T12:45:34.613Z,56.97
2022-12-24T12:48:14.952Z,56.22
2022-12-24T12:51:02.832Z,56.03
2022-12-24T12:54:17.780Z,52.05
2022-12-24T12:56:49.408Z,49.35
2022-12-24T12:59:23.581Z,50.03
2022-12-24T13:02:27.985Z,48.15
2022-12-24T13:05:10.028Z,51.13
2022-12-24T13:07:55.704Z,47.97
2022-12-24T13:10:38.381Z,48.72
2022-12-24T13:13:28.696Z,49.08
2022-12-24T13:16:20.037Z,48.47
2022-12-24T13:19:05.820Z,48.05
2022-12-24T13:21:33.785Z,44.53
2022-12-24T13:24:21.540Z,47.53
2022-12-24T13:27:19.312Z,47.70
2022-12-24T13:30:26.783Z,46.05
2022-12-24T13:32:55.440Z,45.20
2022-12-24T13:35:22.754Z,43.78
2022-12-24T13:37:51.443Z,46.30
2022-12-24T13:40:25.900Z,44.78
2022-12-24T13:42:53.305Z,47.30
2022-12-24T13:45:32.265Z,44.90
2022-12-24T13:48:16.375Z,44.08
2022-12-24T13:50:53.486Z,46.08
2022-12-24T13:53:29.514Z,48.78
2022-12-24T13:56:14.083Z,50.20
2022-12-24T13:58:46.114Z,45.88
2022-12-24T14:01:22.963Z,48.35
2022-12-24T14:03:59.417Z,47.92
2022-12-24T14:06:40.802Z,50.05
2022-12-24T14:09:12.960Z,49.30
2022-12-24T14:11:58.950Z,52.03
2022-12-24T14:14:29.429Z,47.85
2022-12-24T14:17:22.220Z,54.17
2022-12-24T14:19:59.044Z,51.42
2022-12-24T14:22:37.181Z,52.30
2022-12-24T14:25:04.594Z,51.80
2022-12-24T14:27:48.451Z,53.42
2022-12-24T14:30:24.222Z,55.65
2022-12-24T14:32:52.515Z,54.78
2022-12-24T14:35:25.689Z,57.97
2022-12-24T14:38:15.135Z,56.17
2022-12-24T14:40:53.585Z,57.15
2022-12-24T14:43:48.334Z,56.00
2022-12-24T14:46:44.009Z,54.17
2022-12-24T14:49:34.599Z,56.95
2022-12-24T14:55:32.119Z,56.47
2022-12-24T14:58:24.045Z,57.20
2022-12-24T15:00:53.522Z,44.58
2022-12-24T15:03:24.227Z,56.90
2022-12-24T15:05:54.360Z,56.70
2022-12-24T15:08:28.833Z,55.90
2022-12-24T15:11:01.533Z,59.50
2022-12-24T15:13:38.997Z,57.58
2022-12-24T15:16:10.730Z,63.13
2022-12-24T15:18:45.133Z,57.88
2022-12-24T15:21:25.816Z,60.53
2022-12-24T15:23:53.192Z,58.42
2022-12-24T15:26:28.793Z,55.38
2022-12-24T15:29:03.417Z,59.42
2022-12-24T15:31:31.991Z,61.67
2022-12-24T15:34:00.384Z,60.70
2022-12-24T15:36:37.220Z,59.38
2022-12-24T15:39:08.235Z,59.92
2022-12-24T15:42:01.032Z,58.75
2022-12-24T15:44:37.720Z,57.97
2022-12-24T15:47:09.282Z,60.58
2022-12-24T15:49:37.082Z,59.58
2022-12-24T15:52:08.076Z,64.22
2022-12-24T15:54:36.093Z,65.25
2022-12-24T15:57:23.035Z,64.63
2022-12-24T15:59:58.369Z,60.30
2022-12-24T16:02:33.470Z,63.20
2022-12-24T16:05:22.478Z,62.03
2022-12-24T16:08:26.097Z,59.22
2022-12-24T16:11:11.118Z,63.60
2022-12-24T16:13:43.889Z,63.20
2022-12-24T16:16:16.214Z,65.28
2022-12-24T16:18:55.602Z,65.43
2022-12-24T16:21:28.709Z,64.25
2022-12-24T16:23:58.793Z,67.32
2022-12-24T16:26:26.166Z,74.35
2022-12-24T16:28:55.578Z,70.65
2022-12-24T16:31:33.189Z,72.25
2022-12-24T16:34:01.871Z,70.88
2022-12-24T16:36:31.132Z,71.43
2022-12-24T16:39:18.173Z,68.80
2022-12-24T16:42:04.142Z,67.15
2022-12-24T16:44:31.569Z,68.28
2022-12-24T16:47:00.416Z,69.43
2022-12-24T16:49:28.990Z,70.57
2022-12-24T16:51:56.808Z,66.32
2022-12-24T16:54:24.196Z,67.40
2022-12-24T16:56:51.577Z,71.63
2022-12-24T16:59:21.743Z,73.60
2022-12-24T17:01:50.057Z,70.22
2022-12-24T17:04:18.791Z,84.18
2022-12-24T17:06:48.532Z,72.63
2022-12-24T17:09:15.991Z,71.30
2022-12-24T17:11:43.372Z,68.45
2022-12-24T17:14:19.743Z,70.82
2022-12-24T17:16:47.679Z,69.32
2022-12-24T17:19:15.347Z,77.18
2022-12-24T17:21:42.844Z,73.72
2022-12-24T17:24:10.332Z,72.45
2022-12-24T17:26:38.016Z,69.95
2022-12-24T17:29:05.370Z,69.45
2022-12-24T17:31:33.637Z,72.20
2022-12-24T17:34:01.395Z,71.03
2022-12-24T17:36:28.795Z,68.70
2022-12-24T17:38:56.171Z,70.18
2022-12-24T17:41:26.631Z,69.03
2022-12-24T17:43:54.039Z,173.43
2022-12-24T17:46:23.411Z,119.97
2022-12-24T17:48:52.254Z,73.55
2022-12-24T17:51:22.515Z,70.68
2022-12-24T17:53:50.356Z,67.85
2022-12-24T17:56:18.069Z,71.97
2022-12-24T17:58:46.603Z,67.57
2022-12-24T18:01:17.535Z,70.05
2022-12-24T18:03:45.860Z,79.38
2022-12-24T18:06:13.921Z,75.93
2022-12-24T18:08:43.489Z,71.10
2022-12-24T18:11:33.004Z,68.75
2022-12-24T18:14:02.082Z,67.07
2022-12-24T18:16:36.045Z,67.05
2022-12-24T18:19:05.064Z,66.85
2022-12-24T18:21:33.159Z,66.38
2022-12-24T18:24:01.440Z,67.60
2022-12-24T18:26:30.307Z,66.20
2022-12-24T18:29:00.029Z,68.22
2022-12-24T18:31:29.742Z,66.60
2022-12-24T18:33:57.218Z,66.07
2022-12-24T18:36:24.982Z,69.15
2022-12-24T18:38:52.428Z,70.05
2022-12-24T18:41:23.870Z,70.88
2022-12-24T18:43:51.841Z,70.03
2022-12-24T18:46:22.505Z,69.97
2022-12-24T18:48:50.576Z,66.70
2022-12-24T18:51:20.120Z,69.05
2022-12-24T18:53:47.822Z,70.45
2022-12-24T18:56:21.422Z,67.03
2022-12-24T18:58:54.149Z,68.13
2022-12-24T19:01:26.994Z,66.63
2022-12-24T19:03:55.225Z,66.32
2022-12-24T19:06:23.841Z,69.63
2022-12-24T19:09:00.647Z,68.15
2022-12-24T19:11:31.602Z,69.43
2022-12-24T19:13:59.541Z,68.18
2022-12-24T19:16:28.584Z,71.50
2022-12-24T19:18:56.571Z,79.78
2022-12-24T19:21:23.989Z,101.18
2022-12-24T19:23:51.990Z,78.55
2022-12-24T19:26:22.786Z,81.70
2022-12-24T19:28:51.133Z,75.22
2022-12-24T19:31:21.750Z,74.47
2022-12-24T19:33:55.338Z,73.88
2022-12-24T19:36:26.162Z,73.28
2022-12-24T19:38:54.152Z,76.88
2022-12-24T19:41:24.373Z,73.90
2022-12-24T19:43:54.687Z,75.00
2022-12-24T19:46:25.825Z,73.90
2022-12-24T19:48:56.388Z,73.33
2022-12-24T19:51:25.092Z,72.75
2022-12-24T19:53:54.498Z,72.75
2022-12-24T19:56:23.611Z,76.57
2022-12-24T19:58:51.807Z,72.35
2022-12-24T20:01:24.025Z,71.40
2022-12-24T20:03:53.072Z,86.95
2022-12-24T20:06:24.209Z,80.82
2022-12-24T20:08:51.788Z,75.50
2022-12-24T20:11:20.855Z,76.55
2022-12-24T20:13:48.293Z,77.47
2022-12-24T20:16:20.166Z,77.45
2022-12-24T20:18:55.088Z,71.30
2022-12-24T20:21:23.624Z,72.88
2022-12-24T20:23:51.764Z,83.97
2022-12-24T20:26:21.002Z,97.47
2022-12-24T20:28:49.139Z,81.72
2022-12-24T20:31:23.343Z,75.40
2022-12-24T20:33:50.936Z,77.70
2022-12-24T20:36:22.649Z,83.75
2022-12-24T20:38:50.484Z,82.20
2022-12-24T20:41:20.531Z,85.40
2022-12-24T20:43:49.089Z,91.65
2022-12-24T20:46:18.686Z,85.20
2022-12-24T20:48:46.686Z,80.57
2022-12-24T20:51:23.277Z,81.10
2022-12-24T20:53:56.632Z,77.35
2022-12-24T20:56:24.515Z,77.88
2022-12-24T20:58:52.472Z,73.78
2022-12-24T21:01:24.547Z,70.45
2022-12-24T21:03:54.041Z,73.05
2022-12-24T21:06:23.025Z,71.25
2022-12-24T21:08:52.230Z,69.47
2022-12-24T21:11:39.192Z,74.38
2022-12-24T21:14:06.971Z,75.13
2022-12-24T21:16:36.109Z,77.45
2022-12-24T21:19:03.888Z,77.85
2022-12-24T21:21:31.638Z,81.82
2022-12-24T21:23:59.141Z,77.45
2022-12-24T21:26:26.731Z,81.18
2022-12-24T21:28:54.721Z,82.72
2022-12-24T21:31:22.413Z,83.63
2022-12-24T21:33:50.132Z,76.35
2022-12-24T21:36:17.852Z,80.20
2022-12-24T21:38:45.299Z,82.97
2022-12-24T21:41:15.687Z,83.30
2022-12-24T21:43:43.452Z,85.53
2022-12-24T21:46:21.768Z,81.85
2022-12-24T21:49:10.826Z,78.30
2022-12-24T21:51:38.917Z,79.90
2022-12-24T21:54:26.131Z,79.53
2022-12-24T21:57:14.228Z,74.95
2022-12-24T21:59:42.599Z,76.93
2022-12-24T22:02:12.895Z,74.78
2022-12-24T22:04:41.170Z,70.97
2022-12-24T22:07:37.575Z,71.93
2022-12-24T22:10:23.950Z,70.93
2022-12-24T22:12:51.351Z,67.88
2022-12-24T22:15:23.878Z,73.43
2022-12-24T22:17:52.999Z,72.15
2022-12-24T22:20:20.461Z,69.40
2022-12-24T22:22:48.844Z,71.28
2022-12-24T22:25:16.958Z,79.68
2022-12-24T22:27:44.748Z,70.90
2022-12-24T22:30:16.187Z,78.13
2022-12-24T22:32:43.572Z,72.30
2022-12-24T22:35:11.412Z,68.25
2022-12-24T22:37:39.046Z,69.65
2022-12-24T22:40:08.204Z,69.95
2022-12-24T22:42:35.639Z,63.47
2022-12-24T22:45:04.145Z,63.03
2022-12-24T22:47:32.327Z,59.38
2022-12-24T22:50:00.158Z,60.85
2022-12-24T22:52:28.055Z,62.75
2022-12-24T22:54:55.422Z,61.20
2022-12-24T22:57:22.781Z,61.05
2022-12-24T22:59:50.214Z,61.15
2022-12-24T23:02:23.812Z,60.13
2022-12-24T23:04:55.073Z,59.05
2022-12-24T23:07:22.575Z,58.53
2022-12-24T23:09:50.119Z,57.03
2022-12-24T23:12:37.489Z,56.28
2022-12-24T23:15:05.417Z,54.42
2022-12-24T23:17:32.853Z,52.88
2022-12-24T23:20:02.844Z,55.13
2022-12-24T23:22:30.236Z,52.38
2022-12-24T23:24:57.641Z,54.75
2022-12-24T23:27:25.026Z,53.55
2022-12-24T23:29:52.431Z,53.20
2022-12-24T23:32:19.952Z,56.00
2022-12-24T23:34:47.366Z,51.15
2022-12-24T23:37:14.793Z,50.25
2022-12-24T23:39:42.156Z,48.50
2022-12-24T23:42:09.561Z,47.88
2022-12-24T23:44:37.005Z,45.70
2022-12-24T23:47:04.550Z,45.42
2022-12-24T23:49:32.091Z,42.60
2022-12-24T23:51:59.507Z,42.22
2022-12-24T23:54:27.855Z,39.78
2022-12-24T23:56:55.208Z,42.08
2022-12-24T23:59:22.647Z,40.90
